Koniz, Switzerland

3:33 AM CET on December 06, 2016 (GMT +0100)
Blinzernstrasse | | Change Station

Elev 2004 ft 46.92 °N, 7.42 °E | Updated 6 minutes ago

Light Freezing Fog
Freezing Fog
33.1 °F
Feels Like 33 °F
N
0.0
Wind Variable Wind from North
Gusts 0.6 mph

Today
High -- | Low -- °F
--% Chance of Precip.
Yesterday
High -- | Low -- °F
Precip. -- in
Pressure 30.39 in
Visibility 0.5 miles
Clouds Few 6000 ft
Windchill 33 °F
Dew Point 30 °F
Humidity 87%
Rainfall 0.00 in
Snow Depth Not available.
8:01 AM 4:41 PM
Waxing Crescent, 37% visible
METAR LSZB 060220Z AUTO VRB01KT 0800 R14/P2000D FZFG FEW060 M01/M02 Q1029
Pressure 30.39 in
Visibility 0.5 miles
Clouds Few 6000 ft
Windchill 33 °F
Dew Point 30 °F
Humidity 87%
Rainfall 0.00 in
Snow Depth Not available.
8:01 AM 4:41 PM
Waxing Crescent, 37% visible
METAR LSZB 060220Z AUTO VRB01KT 0800 R14/P2000D FZFG FEW060 M01/M02 Q1029

10-Day Weather Forecast

×

Almanac

Astronomy

Dec. 06, 2016 Rise Set
Actual Time
Civil Twilight
Nautical Twilight
Astronomical Twilight
Moon
Length of Visible Light
Length of Day
Tomorrow will be .
, % of the Moon is Illuminated

Today's Extremes

Country Highs Country Lows

Community

WunderPhotos

Upload Photos

1,955,904 photos uploaded!

WunderBlog® & News

Nearby

Air Quality

  Air Quality AQ Index Pollutant
Not available.

Snow Depth

Station Depth Elevation

Earthquake Activity

City Distance Mag. Time & Date
Minimum magnitude displayed is 2.5.

Coastal Water Temperatures

Place Temperature

Stations

Nearby Weather Stations

Station Location Temp. Windchill Dew Point Humidity Wind Precip. Elev Updated Type